Terminal Aerodrome Forecast
Issued by NWS Cleveland, OH

Home | Current Version | Previous Version | Text Only | Print | Product List | Glossary On
Versions: 1 2 3 4 5 6 7 8 9 10 11 12 13 14 15 16 17 18 19 20
053
FTUS41 KCLE 132003 AAB
TAFCAK
TAF AMD
KCAK 132003Z 1320/1418 29012G18KT 6SM -SHSN BKN035
      TEMPO 1320/1324 2SM -SHSN BKN025
     FM140000 29006KT P6SM BKN035
     FM141700 15005KT P6SM BKN035=

USA.gov is the U.S. government's official web portal to all federal, state and local government web resources and services.